createdAt,value
2022-12-22T00:07:23.871Z,6.40
2022-12-22T00:10:52.901Z,6.40
2022-12-22T00:13:49.741Z,6.40
2022-12-22T00:16:50.536Z,6.40
2022-12-22T00:20:18.302Z,6.40
2022-12-22T00:23:34.667Z,6.40
2022-12-22T00:26:39.209Z,6.30
2022-12-22T00:29:40.454Z,6.40
2022-12-22T00:32:36.565Z,6.30
2022-12-22T00:35:36.444Z,6.40
2022-12-22T00:38:42.655Z,6.40
2022-12-22T00:41:44.541Z,6.40
2022-12-22T00:44:55.399Z,6.40
2022-12-22T00:48:12.635Z,6.40
2022-12-22T01:00:10.779Z,6.40
2022-12-22T01:03:34.231Z,6.40
2022-12-22T01:06:22.047Z,6.40
2022-12-22T01:09:20.666Z,6.40
2022-12-22T01:12:12.807Z,6.50
2022-12-22T01:15:43.764Z,6.50
2022-12-22T01:18:39.677Z,6.50
2022-12-22T01:21:46.261Z,6.50
2022-12-22T01:25:06.964Z,6.50
2022-12-22T01:28:45.461Z,6.50
2022-12-22T01:32:04.029Z,6.50
2022-12-22T01:35:30.705Z,6.50
2022-12-22T01:38:53.888Z,6.50
2022-12-22T01:42:08.426Z,6.50
2022-12-22T01:46:46.927Z,6.40
2022-12-22T01:50:06.434Z,6.40
2022-12-22T01:53:19.751Z,6.30
2022-12-22T01:56:54.427Z,6.30
2022-12-22T02:00:09.286Z,6.20
2022-12-22T02:03:42.959Z,6.20
2022-12-22T02:07:03.263Z,6.10
2022-12-22T02:10:41.669Z,6.00
2022-12-22T02:13:59.193Z,6.00
2022-12-22T02:21:02.838Z,5.90
2022-12-22T02:24:16.930Z,5.90
2022-12-22T02:27:13.345Z,5.90
2022-12-22T02:30:19.637Z,5.90
2022-12-22T02:33:10.336Z,5.80
2022-12-22T02:36:17.121Z,5.80
2022-12-22T02:39:12.676Z,5.80
2022-12-22T02:42:18.493Z,5.80
2022-12-22T02:48:50.506Z,5.80
2022-12-22T02:51:49.294Z,5.80
2022-12-22T02:55:03.718Z,5.80
2022-12-22T02:58:01.643Z,5.80
2022-12-22T03:01:04.199Z,5.80
2022-12-22T03:07:54.093Z,5.70
2022-12-22T03:11:26.354Z,5.60
2022-12-22T03:14:32.623Z,5.60
2022-12-22T03:18:01.779Z,5.80
2022-12-22T03:24:57.068Z,5.60
2022-12-22T03:27:59.325Z,5.60
2022-12-22T03:30:42.919Z,5.60
2022-12-22T03:33:34.943Z,5.50
2022-12-22T03:36:26.683Z,5.60
2022-12-22T03:39:36.674Z,5.50
2022-12-22T03:42:51.491Z,5.60
2022-12-22T03:45:45.533Z,5.60
2022-12-22T03:48:41.309Z,5.70
2022-12-22T03:52:11.370Z,5.80
2022-12-22T03:55:08.877Z,5.80
2022-12-22T03:58:33.043Z,5.90
2022-12-22T04:01:29.059Z,6.00
2022-12-22T04:04:32.967Z,6.10
2022-12-22T04:07:15.343Z,6.40
2022-12-22T04:10:20.083Z,6.50
2022-12-22T04:13:11.962Z,6.60
2022-12-22T04:16:18.917Z,6.70
2022-12-22T04:19:05.851Z,6.80
2022-12-22T04:21:55.433Z,6.90
2022-12-22T04:24:30.503Z,7.00
2022-12-22T04:27:09.959Z,7.00
2022-12-22T04:29:53.627Z,7.00
2022-12-22T04:32:53.570Z,7.10
2022-12-22T04:35:46.359Z,7.20
2022-12-22T04:38:43.414Z,7.20
2022-12-22T04:41:41.144Z,7.20
2022-12-22T04:44:28.393Z,7.20
2022-12-22T04:47:12.306Z,7.20
2022-12-22T04:49:58.595Z,7.20
2022-12-22T04:53:04.250Z,7.20
2022-12-22T04:56:20.718Z,7.20
2022-12-22T04:58:59.459Z,7.20
2022-12-22T05:01:53.457Z,7.20
2022-12-22T05:04:40.994Z,7.20
2022-12-22T05:07:43.028Z,7.20
2022-12-22T05:10:52.999Z,7.30
2022-12-22T05:14:00.832Z,7.30
2022-12-22T05:16:43.857Z,7.30
2022-12-22T05:19:29.116Z,7.30
2022-12-22T05:22:05.518Z,7.20
2022-12-22T05:24:55.750Z,7.20
2022-12-22T05:27:32.600Z,7.20
2022-12-22T05:30:19.025Z,7.10
2022-12-22T05:33:07.863Z,7.20
2022-12-22T05:35:46.272Z,7.10
2022-12-22T05:38:23.905Z,7.10
2022-12-22T05:41:34.195Z,7.10
2022-12-22T05:44:24.206Z,7.10
2022-12-22T05:47:07.034Z,7.10
2022-12-22T05:49:56.164Z,6.90
2022-12-22T05:52:45.975Z,7.00
2022-12-22T05:55:26.805Z,7.00
2022-12-22T05:58:22.108Z,7.00
2022-12-22T06:01:01.814Z,7.10
2022-12-22T06:04:00.648Z,6.90
2022-12-22T06:06:49.927Z,6.90
2022-12-22T06:10:02.685Z,6.90
2022-12-22T06:13:00.873Z,6.80
2022-12-22T06:15:57.681Z,6.80
2022-12-22T06:18:50.334Z,6.70
2022-12-22T06:21:56.599Z,6.60
2022-12-22T06:24:48.970Z,6.50
2022-12-22T06:27:51.031Z,6.40
2022-12-22T06:33:48.053Z,6.20
2022-12-22T06:36:37.800Z,6.10
2022-12-22T06:39:48.393Z,6.00
2022-12-22T06:42:49.141Z,5.90
2022-12-22T06:45:30.432Z,5.80
2022-12-22T06:48:06.544Z,5.70
2022-12-22T06:50:39.945Z,5.70
2022-12-22T06:53:25.627Z,5.60
2022-12-22T06:56:02.998Z,5.50
2022-12-22T06:58:50.866Z,5.40
2022-12-22T07:01:27.740Z,5.40
2022-12-22T07:04:06.545Z,5.30
2022-12-22T07:06:55.344Z,5.30
2022-12-22T07:10:21.652Z,5.30
2022-12-22T07:12:54.157Z,5.30
2022-12-22T07:15:45.828Z,5.30
2022-12-22T07:18:59.719Z,5.30
2022-12-22T07:25:13.456Z,5.30
2022-12-22T07:28:05.645Z,5.30
2022-12-22T07:30:41.982Z,5.20
2022-12-22T07:33:20.582Z,5.20
2022-12-22T07:36:13.279Z,5.20
2022-12-22T07:39:03.919Z,5.10
2022-12-22T07:42:03.855Z,5.10
2022-12-22T07:44:48.975Z,5.10
2022-12-22T07:48:07.329Z,5.10
2022-12-22T07:50:42.214Z,5.30
2022-12-22T07:53:33.065Z,5.50
2022-12-22T07:59:53.079Z,5.70
2022-12-22T08:02:33.888Z,5.80
2022-12-22T08:05:07.590Z,5.80
2022-12-22T08:07:35.898Z,5.90
2022-12-22T08:10:03.821Z,6.00
2022-12-22T08:12:32.827Z,6.10
2022-12-22T08:15:00.794Z,6.20
2022-12-22T08:17:29.157Z,6.40
2022-12-22T08:19:56.846Z,6.60
2022-12-22T08:22:25.073Z,6.80
2022-12-22T08:24:54.529Z,7.00
2022-12-22T08:27:43.127Z,7.10
2022-12-22T08:30:12.568Z,7.20
2022-12-22T08:32:41.349Z,7.20
2022-12-22T08:35:10.008Z,7.20
2022-12-22T08:37:42.342Z,7.20
2022-12-22T08:40:22.921Z,7.30
2022-12-22T08:42:59.320Z,7.30
2022-12-22T08:45:27.193Z,7.30
2022-12-22T08:47:55.023Z,7.30
2022-12-22T08:50:23.440Z,7.30
2022-12-22T08:52:51.475Z,7.30
2022-12-22T08:55:19.333Z,7.40
2022-12-22T08:57:55.897Z,7.40
2022-12-22T09:00:24.915Z,7.40
2022-12-22T09:02:56.323Z,7.40
2022-12-22T09:05:26.920Z,7.40
2022-12-22T09:07:55.733Z,7.50
2022-12-22T09:10:30.512Z,7.90
2022-12-22T09:13:06.811Z,7.70
2022-12-22T09:15:37.803Z,7.90
2022-12-22T09:18:05.601Z,8.10
2022-12-22T09:20:33.336Z,8.20
2022-12-22T09:23:01.196Z,8.30
2022-12-22T09:25:29.056Z,8.40
2022-12-22T09:27:56.742Z,8.50
2022-12-22T09:30:25.052Z,8.60
2022-12-22T09:32:55.360Z,8.60
2022-12-22T09:35:23.099Z,8.70
2022-12-22T09:37:52.077Z,8.90
2022-12-22T09:40:21.935Z,8.80
2022-12-22T09:42:49.749Z,8.80
2022-12-22T09:45:22.175Z,8.90
2022-12-22T09:47:54.035Z,8.90
2022-12-22T09:50:27.489Z,8.90
2022-12-22T09:53:01.498Z,9.00
2022-12-22T09:55:40.018Z,9.00
2022-12-22T09:58:29.695Z,9.00
2022-12-22T10:01:06.191Z,9.10
2022-12-22T10:04:03.772Z,9.10
2022-12-22T10:06:55.443Z,9.10
2022-12-22T10:09:49.629Z,9.20
2022-12-22T10:12:25.036Z,9.20
2022-12-22T10:14:55.571Z,9.30
2022-12-22T10:17:24.011Z,9.30
2022-12-22T10:19:54.372Z,9.40
2022-12-22T10:22:33.766Z,9.50
2022-12-22T10:25:03.875Z,9.50
2022-12-22T10:27:38.594Z,9.60
2022-12-22T10:30:31.629Z,9.60
2022-12-22T10:33:05.383Z,9.70
2022-12-22T10:35:58.287Z,9.80
2022-12-22T10:38:30.877Z,9.80
2022-12-22T10:41:03.355Z,9.90
2022-12-22T10:43:37.508Z,10.00
2022-12-22T10:46:07.716Z,10.00
2022-12-22T10:48:38.615Z,10.20
2022-12-22T10:51:09.118Z,10.20
2022-12-22T10:53:42.916Z,10.40
2022-12-22T10:56:58.638Z,10.40
2022-12-22T10:59:52.312Z,10.50
2022-12-22T11:02:39.643Z,10.60
2022-12-22T11:05:20.228Z,10.70
2022-12-22T11:08:51.562Z,10.70
2022-12-22T11:17:07.319Z,10.90
2022-12-22T11:20:45.813Z,10.90
2022-12-22T11:24:05.689Z,11.10
2022-12-22T11:26:57.590Z,11.20
2022-12-22T11:29:28.220Z,11.20
2022-12-22T11:32:05.492Z,11.30
2022-12-22T11:34:52.210Z,11.30
2022-12-22T11:37:48.623Z,11.30
2022-12-22T11:40:37.369Z,11.40
2022-12-22T11:43:17.373Z,11.40
2022-12-22T11:46:14.762Z,11.40
2022-12-22T11:49:14.171Z,11.40
2022-12-22T11:51:59.728Z,11.40
2022-12-22T11:54:59.976Z,11.40
2022-12-22T11:57:48.949Z,11.40
2022-12-22T12:00:18.570Z,11.40
2022-12-22T12:02:58.698Z,11.50
2022-12-22T12:05:38.546Z,11.50
2022-12-22T12:08:43.967Z,11.50
2022-12-22T12:11:32.178Z,11.50
2022-12-22T12:14:45.857Z,11.90
2022-12-22T12:17:36.091Z,11.60
2022-12-22T12:20:15.890Z,11.60
2022-12-22T12:23:05.730Z,11.60
2022-12-22T12:26:00.420Z,11.60
2022-12-22T12:29:11.353Z,11.70
2022-12-22T12:31:41.524Z,11.70
2022-12-22T12:34:16.171Z,11.70
2022-12-22T12:37:07.234Z,11.70
2022-12-22T12:39:42.525Z,11.70
2022-12-22T12:42:37.905Z,11.70
2022-12-22T12:45:37.840Z,11.70
2022-12-22T12:48:24.627Z,11.80
2022-12-22T12:50:57.453Z,11.80
2022-12-22T12:53:27.107Z,11.80
2022-12-22T12:56:14.772Z,11.80
2022-12-22T12:58:43.533Z,11.90
2022-12-22T13:01:13.796Z,11.90
2022-12-22T13:06:49.789Z,11.90
2022-12-22T13:09:49.951Z,11.90
2022-12-22T13:12:51.354Z,11.90
2022-12-22T13:15:36.021Z,11.90
2022-12-22T13:18:31.836Z,11.90
2022-12-22T13:21:50.971Z,11.90
2022-12-22T13:24:30.219Z,11.80
2022-12-22T13:27:09.164Z,11.80
2022-12-22T13:29:48.247Z,11.80
2022-12-22T13:32:34.074Z,11.80
2022-12-22T13:35:32.071Z,11.80
2022-12-22T13:38:11.296Z,11.80
2022-12-22T13:40:46.223Z,11.80
2022-12-22T13:43:16.867Z,12.20
2022-12-22T13:45:58.260Z,11.80
2022-12-22T13:48:44.554Z,11.70
2022-12-22T13:51:25.498Z,11.80
2022-12-22T13:54:10.640Z,11.80
2022-12-22T13:56:51.518Z,11.80
2022-12-22T13:59:46.715Z,11.70
2022-12-22T14:02:19.161Z,11.70
2022-12-22T14:05:11.816Z,11.70
2022-12-22T14:07:40.136Z,11.70
2022-12-22T14:10:10.834Z,11.70
2022-12-22T14:12:46.559Z,11.70
2022-12-22T14:15:28.620Z,11.60
2022-12-22T14:18:27.852Z,11.60
2022-12-22T14:20:56.995Z,11.60
2022-12-22T14:23:41.144Z,11.60
2022-12-22T14:26:23.177Z,11.60
2022-12-22T14:28:58.339Z,11.60
2022-12-22T14:36:41.890Z,11.60
2022-12-22T14:39:10.842Z,11.50
2022-12-22T14:42:18.838Z,11.50
2022-12-22T14:44:51.718Z,11.60
2022-12-22T14:47:30.131Z,11.50
2022-12-22T14:55:45.388Z,11.50
2022-12-22T14:58:55.038Z,11.50
2022-12-22T15:01:38.023Z,11.50
2022-12-22T15:04:30.824Z,11.50
2022-12-22T15:07:54.321Z,11.50
2022-12-22T15:10:16.107Z,11.50
2022-12-22T15:12:50.732Z,11.50
2022-12-22T15:15:22.297Z,11.50
2022-12-22T15:17:53.037Z,11.50
2022-12-22T15:20:39.591Z,11.50
2022-12-22T15:23:14.509Z,11.50
2022-12-22T15:25:48.940Z,11.50
2022-12-22T15:28:16.894Z,11.50
2022-12-22T15:30:44.865Z,11.40
2022-12-22T15:33:16.074Z,11.40
2022-12-22T15:35:45.056Z,11.40
2022-12-22T15:38:19.031Z,11.30
2022-12-22T15:40:50.828Z,11.30
2022-12-22T15:46:15.923Z,11.20
2022-12-22T15:48:45.401Z,11.20
2022-12-22T16:27:57.629Z,11.00
2022-12-22T16:31:24.576Z,11.00
2022-12-22T16:34:59.310Z,11.00
2022-12-22T16:39:14.077Z,11.00
2022-12-22T16:51:17.832Z,11.00
2022-12-22T17:45:42.876Z,11.00
2022-12-22T17:48:11.443Z,11.00
2022-12-22T17:50:39.853Z,11.00
2022-12-22T17:53:18.248Z,11.00
2022-12-22T17:56:07.696Z,11.00
2022-12-22T17:58:37.991Z,11.00
2022-12-22T18:01:06.196Z,11.00
2022-12-22T18:03:34.269Z,11.00
2022-12-22T18:06:03.589Z,11.00
2022-12-22T18:08:31.411Z,11.00
2022-12-22T18:11:02.613Z,11.00
2022-12-22T18:13:30.581Z,11.00
2022-12-22T18:15:58.999Z,10.90
2022-12-22T18:18:27.521Z,11.00
2022-12-22T18:21:06.676Z,11.20
2022-12-22T18:23:38.030Z,11.10
2022-12-22T18:26:12.533Z,11.00
2022-12-22T18:28:41.221Z,11.00
2022-12-22T18:31:11.106Z,11.10
2022-12-22T18:33:39.312Z,11.10
2022-12-22T18:36:11.058Z,11.10
2022-12-22T18:38:39.141Z,11.10
2022-12-22T18:41:12.012Z,11.10
2022-12-22T18:43:42.855Z,11.10
2022-12-22T18:46:14.414Z,11.10
2022-12-22T18:48:46.477Z,11.10
2022-12-22T18:51:39.185Z,11.10
2022-12-22T18:54:32.492Z,11.10
2022-12-22T18:57:00.446Z,11.10
2022-12-22T18:59:30.093Z,11.10
2022-12-22T19:02:25.802Z,11.10
2022-12-22T19:04:55.089Z,11.10
2022-12-22T19:07:26.298Z,11.10
2022-12-22T19:09:55.668Z,11.10
2022-12-22T19:12:50.665Z,11.10
2022-12-22T19:15:32.631Z,11.00
2022-12-22T19:18:28.319Z,11.00
2022-12-22T19:20:59.479Z,11.00
2022-12-22T19:23:32.709Z,11.00
2022-12-22T19:26:08.330Z,11.00
2022-12-22T19:28:43.999Z,11.00
2022-12-22T19:31:33.641Z,11.00
2022-12-22T19:34:05.392Z,11.00
2022-12-22T19:36:36.583Z,11.00
2022-12-22T19:39:06.086Z,11.00
2022-12-22T19:41:47.484Z,11.00
2022-12-22T19:44:26.387Z,11.00
2022-12-22T19:46:59.418Z,11.00
2022-12-22T19:49:42.647Z,11.10
2022-12-22T19:52:11.283Z,11.00
2022-12-22T19:54:39.306Z,11.00
2022-12-22T19:57:30.356Z,11.00
2022-12-22T20:00:26.123Z,11.00
2022-12-22T20:05:42.232Z,11.10
2022-12-22T20:08:40.265Z,11.00
2022-12-22T20:11:19.734Z,11.00
2022-12-22T20:13:55.012Z,11.00
2022-12-22T20:16:34.690Z,10.90
2022-12-22T20:19:06.152Z,11.00
2022-12-22T20:21:42.240Z,11.00
2022-12-22T20:24:23.212Z,11.00
2022-12-22T20:26:54.941Z,11.00
2022-12-22T20:29:29.387Z,11.20
2022-12-22T20:31:58.063Z,11.00
2022-12-22T20:34:34.940Z,11.00
2022-12-22T20:37:09.637Z,10.90
2022-12-22T20:39:43.673Z,11.00
2022-12-22T20:42:27.005Z,11.00
2022-12-22T20:45:02.333Z,11.00
2022-12-22T20:47:34.289Z,11.00
2022-12-22T20:50:26.859Z,11.00
2022-12-22T20:52:57.700Z,11.00
2022-12-22T20:55:38.886Z,10.70
2022-12-22T20:58:24.514Z,11.00
2022-12-22T21:00:57.361Z,11.00
2022-12-22T21:03:32.976Z,11.00
2022-12-22T21:06:01.317Z,11.00
2022-12-22T21:08:29.227Z,11.30
2022-12-22T21:11:00.260Z,11.10
2022-12-22T21:13:28.387Z,11.10
2022-12-22T21:15:56.646Z,11.20
2022-12-22T21:18:24.953Z,11.30
2022-12-22T21:20:55.782Z,11.40
2022-12-22T21:23:24.961Z,11.50
2022-12-22T21:26:00.299Z,11.60
2022-12-22T21:28:34.580Z,11.60
2022-12-22T21:31:05.964Z,11.70
2022-12-22T21:37:05.451Z,11.80
2022-12-22T21:39:39.550Z,11.90
2022-12-22T21:42:15.185Z,12.00
2022-12-22T21:44:44.764Z,12.00
2022-12-22T21:47:14.284Z,12.00
2022-12-22T21:49:42.337Z,12.00
2022-12-22T21:52:12.504Z,12.00
2022-12-22T21:54:42.664Z,11.90
2022-12-22T21:57:16.937Z,11.80
2022-12-22T21:59:46.009Z,11.60
2022-12-22T22:02:24.775Z,11.60
2022-12-22T22:04:58.649Z,11.50
2022-12-22T22:07:26.751Z,11.40
2022-12-22T22:10:12.522Z,11.40
2022-12-22T22:12:49.790Z,11.50
2022-12-22T22:15:31.861Z,11.00
2022-12-22T22:18:06.879Z,11.20
2022-12-22T22:20:35.402Z,11.20
2022-12-22T22:23:03.503Z,11.10
2022-12-22T22:25:33.871Z,11.10
2022-12-22T22:28:04.978Z,11.90
2022-12-22T22:30:32.768Z,11.00
2022-12-22T22:33:02.110Z,11.00
2022-12-22T22:35:30.002Z,11.00
2022-12-22T22:37:57.961Z,11.00
2022-12-22T22:40:25.818Z,11.00
2022-12-22T22:42:53.662Z,11.00
2022-12-22T22:45:24.332Z,10.90
2022-12-22T22:47:53.010Z,10.90
2022-12-22T22:50:22.032Z,10.90
2022-12-22T22:52:49.847Z,11.30
2022-12-22T22:55:17.715Z,10.90
2022-12-22T22:57:45.646Z,10.90
2022-12-22T23:00:15.894Z,10.80
2022-12-22T23:02:44.588Z,10.90
2022-12-22T23:05:18.567Z,10.80
2022-12-22T23:07:54.969Z,10.80
2022-12-22T23:10:23.042Z,10.80
2022-12-22T23:12:51.945Z,10.80
2022-12-22T23:15:23.345Z,10.80
2022-12-22T23:17:54.445Z,10.80
2022-12-22T23:20:22.372Z,10.60
2022-12-22T23:25:49.716Z,10.80
2022-12-22T23:28:20.570Z,10.70
2022-12-22T23:30:51.578Z,10.80
2022-12-22T23:33:20.773Z,10.70
2022-12-22T23:35:50.391Z,10.70
2022-12-22T23:38:23.943Z,10.70
2022-12-22T23:41:05.125Z,10.70
2022-12-22T23:43:33.875Z,10.70
2022-12-22T23:46:09.520Z,10.70
2022-12-22T23:48:38.069Z,10.60
2022-12-22T23:51:06.906Z,10.70
2022-12-22T23:53:35.879Z,10.70
2022-12-22T23:56:04.387Z,10.60
2022-12-22T23:58:32.408Z,10.70
